Time;durP1;ratioP1;P1;durP2;ratioP2;P2;SDS_P1;SDS_P2;PMS_P1;PMS_P2;Temp;Humidity;BMP_temperature;BMP_pressure;BME280_temperature;BME280_humidity;BME280_pressure;Samples;Min_cycle;Max_cycle;Signal;HPM_P1;HPM_P2
2023/03/27 00:01:51;;;;;;;42.10;19.63;;;;;;;;;;4418509;32;319204;-87
2023/03/27 00:04:18;;;;;;;41.53;21.83;;;;;;;;;;4408497;32;319261;-89
2023/03/27 00:06:47;;;;;;;52.30;28.30;;;;;;;;;;4421050;32;319294;-88
2023/03/27 00:09:15;;;;;;;55.13;28.50;;;;;;;;;;4409561;32;319565;-89
2023/03/27 00:11:42;;;;;;;56.30;29.67;;;;;;;;;;4408272;32;318575;-89
2023/03/27 00:14:11;;;;;;;52.83;25.83;;;;;;;;;;4402116;32;319161;-89
2023/03/27 00:16:38;;;;;;;49.27;25.07;;;;;;;;;;4420829;32;319345;-89
2023/03/27 00:19:04;;;;;;;69.60;32.27;;;;;;;;;;4410746;32;319430;-89
2023/03/27 00:21:33;;;;;;;58.17;29.77;;;;;;;;;;4420888;32;319359;-89
2023/03/27 00:23:59;;;;;;;50.40;24.07;;;;;;;;;;4410952;32;319708;-90
2023/03/27 00:26:29;;;;;;;39.73;19.43;;;;;;;;;;4421146;32;319659;-88
2023/03/27 00:28:56;;;;;;;27.83;16.93;;;;;;;;;;4421823;32;319483;-88
2023/03/27 00:31:24;;;;;;;31.23;17.80;;;;;;;;;;4407827;32;418132;-87
2023/03/27 00:33:51;;;;;;;58.60;27.13;;;;;;;;;;4420080;32;319480;-87
2023/03/27 00:36:18;;;;;;;56.73;28.63;;;;;;;;;;4410565;32;318553;-89
2023/03/27 00:38:45;;;;;;;47.37;24.80;;;;;;;;;;4420982;32;319273;-87
2023/03/27 00:41:12;;;;;;;46.97;21.00;;;;;;;;;;4410583;32;319291;-87
2023/03/27 00:43:42;;;;;;;54.97;27.27;;;;;;;;;;4419385;32;319358;-87
2023/03/27 00:46:30;;;;;;;39.43;23.20;;;;;;;;;;4409640;32;319359;-89
2023/03/27 00:48:59;;;;;;;47.73;23.83;;;;;;;;;;4410630;32;319298;-89
2023/03/27 00:51:27;;;;;;;42.10;21.50;;;;;;;;;;4420418;32;319351;-89
2023/03/27 00:53:56;;;;;;;36.27;19.07;;;;;;;;;;4420225;32;319309;-89
2023/03/27 00:56:24;;;;;;;36.40;14.17;;;;;;;;;;4407813;32;417543;-90
2023/03/27 00:58:54;;;;;;;31.17;14.70;;;;;;;;;;4400901;32;319299;-89
2023/03/27 01:01:23;;;;;;;31.97;15.13;;;;;;;;;;4409052;32;319214;-89
2023/03/27 01:03:53;;;;;;;22.23;10.57;;;;;;;;;;4419363;32;319179;-89
2023/03/27 01:06:21;;;;;;;11.33;6.53;;;;;;;;;;4408711;32;319287;-89
2023/03/27 01:08:48;;;;;;;11.10;5.83;;;;;;;;;;4419170;32;318611;-87
2023/03/27 01:11:26;;;;;;;11.77;6.97;;;;;;;;;;4409120;32;318274;-87
2023/03/27 01:14:11;;;;;;;13.17;6.93;;;;;;;;;;4418875;32;318145;-88
2023/03/27 01:16:45;;;;;;;21.83;12.17;;;;;;;;;;4405508;32;416801;-87
2023/03/27 01:19:34;;;;;;;13.27;8.57;;;;;;;;;;4408847;32;319164;-87
2023/03/27 01:22:23;;;;;;;15.50;8.07;;;;;;;;;;4410860;32;318155;-89
2023/03/27 01:25:09;;;;;;;18.30;9.60;;;;;;;;;;4419823;32;318258;-87
2023/03/27 01:27:52;;;;;;;14.20;9.00;;;;;;;;;;4406098;32;418121;-87
2023/03/27 01:30:26;;;;;;;18.67;8.83;;;;;;;;;;4409215;32;318314;-89
2023/03/27 01:33:21;;;;;;;18.07;9.40;;;;;;;;;;4420430;32;317619;-89
2023/03/27 01:36:19;;;;;;;13.43;8.80;;;;;;;;;;4406878;32;417966;-88
2023/03/27 01:39:15;;;;;;;17.93;11.10;;;;;;;;;;4407140;32;418285;-88
2023/03/27 01:41:48;;;;;;;24.37;14.53;;;;;;;;;;4406697;32;419285;-90
2023/03/27 01:44:19;;;;;;;20.17;10.97;;;;;;;;;;4408561;32;319289;-90
2023/03/27 01:46:53;;;;;;;20.07;12.43;;;;;;;;;;4418697;32;319571;-87
2023/03/27 01:49:23;;;;;;;19.50;13.13;;;;;;;;;;4409808;32;318805;-87
2023/03/27 01:51:53;;;;;;;22.23;11.73;;;;;;;;;;4399199;32;319311;-89
2023/03/27 01:54:26;;;;;;;27.43;11.20;;;;;;;;;;4408104;32;318746;-87
2023/03/27 01:57:01;;;;;;;18.93;8.97;;;;;;;;;;4419832;32;323587;-87
2023/03/27 01:59:30;;;;;;;11.73;7.10;;;;;;;;;;4406938;32;417078;-88
2023/03/27 02:02:02;;;;;;;14.43;7.13;;;;;;;;;;4410082;32;317563;-88
2023/03/27 02:04:34;;;;;;;19.63;8.80;;;;;;;;;;4420175;32;317676;-87
2023/03/27 02:07:05;;;;;;;14.87;9.10;;;;;;;;;;4409671;32;318360;-88
2023/03/27 02:09:36;;;;;;;12.43;8.77;;;;;;;;;;4419570;32;318224;-87
2023/03/27 02:12:07;;;;;;;24.47;15.23;;;;;;;;;;4411042;32;317818;-87
2023/03/27 02:14:38;;;;;;;21.30;10.87;;;;;;;;;;4420377;32;319146;-87
2023/03/27 02:17:12;;;;;;;18.03;9.87;;;;;;;;;;4408866;32;322086;-90
2023/03/27 02:19:47;;;;;;;11.57;6.70;;;;;;;;;;4389835;32;317526;-87
2023/03/27 02:22:14;;;;;;;18.63;6.87;;;;;;;;;;4381655;32;317585;-88
2023/03/27 02:24:43;;;;;;;12.27;7.93;;;;;;;;;;4397863;32;317827;-86
2023/03/27 02:27:16;;;;;;;16.07;7.20;;;;;;;;;;4376019;32;318391;-89
2023/03/27 02:29:53;;;;;;;16.30;8.27;;;;;;;;;;4396066;32;318199;-89
2023/03/27 02:32:31;;;;;;;15.37;9.37;;;;;;;;;;4385388;32;318320;-88
2023/03/27 02:35:37;;;;;;;18.10;10.63;;;;;;;;;;4385708;32;318420;-86
2023/03/27 02:38:12;;;;;;;16.70;9.07;;;;;;;;;;4376164;32;358040;-87
2023/03/27 02:40:47;;;;;;;14.60;8.47;;;;;;;;;;4389327;32;318344;-88
2023/03/27 02:43:19;;;;;;;18.80;10.83;;;;;;;;;;4377834;32;318432;-88
2023/03/27 02:45:54;;;;;;;21.27;12.47;;;;;;;;;;4388666;32;319390;-87
2023/03/27 02:48:28;;;;;;;25.17;9.57;;;;;;;;;;4377083;32;354220;-88
2023/03/27 02:50:58;;;;;;;18.63;9.00;;;;;;;;;;4387676;32;320891;-88
2023/03/27 02:53:28;;;;;;;29.27;9.67;;;;;;;;;;4374352;32;417318;-87
2023/03/27 02:55:59;;;;;;;16.73;7.80;;;;;;;;;;4388004;32;318338;-88
2023/03/27 02:58:31;;;;;;;22.73;10.83;;;;;;;;;;4375185;32;417555;-88
2023/03/27 03:01:00;;;;;;;23.73;10.90;;;;;;;;;;4377704;32;319346;-87
2023/03/27 03:03:34;;;;;;;23.93;12.67;;;;;;;;;;4387963;32;319212;-88
2023/03/27 03:06:05;;;;;;;24.43;12.23;;;;;;;;;;4375940;32;319361;-87
2023/03/27 03:08:37;;;;;;;24.87;12.30;;;;;;;;;;4387436;32;319027;-88
2023/03/27 03:11:07;;;;;;;22.47;13.20;;;;;;;;;;4378126;32;319393;-88
2023/03/27 03:13:33;;;;;;;21.40;10.80;;;;;;;;;;4387709;32;319400;-87
2023/03/27 03:16:04;;;;;;;20.47;10.83;;;;;;;;;;4376699;32;319390;-88
2023/03/27 03:18:30;;;;;;;17.87;10.10;;;;;;;;;;4403312;32;319543;-88
2023/03/27 03:20:58;;;;;;;15.53;8.77;;;;;;;;;;4405827;32;319408;-88
2023/03/27 03:23:25;;;;;;;16.37;8.60;;;;;;;;;;4416754;32;318245;-88
2023/03/27 03:25:55;;;;;;;20.13;11.07;;;;;;;;;;4416686;32;317977;-88
2023/03/27 03:28:24;;;;;;;14.77;8.93;;;;;;;;;;4404922;32;421158;-88
2023/03/27 03:30:52;;;;;;;20.80;10.80;;;;;;;;;;4416608;32;317672;-88
2023/03/27 03:33:20;;;;;;;21.67;10.93;;;;;;;;;;4407917;32;319516;-88
2023/03/27 03:35:47;;;;;;;18.77;11.07;;;;;;;;;;4417419;32;319222;-89
2023/03/27 03:38:23;;;;;;;18.50;11.87;;;;;;;;;;4406964;32;319160;-89
2023/03/27 03:40:51;;;;;;;21.47;12.37;;;;;;;;;;4420031;32;328942;-88
2023/03/27 03:43:20;;;;;;;21.03;12.77;;;;;;;;;;4409772;32;319395;-88
2023/03/27 03:45:48;;;;;;;25.90;14.23;;;;;;;;;;4420662;32;319532;-88
2023/03/27 03:48:15;;;;;;;24.93;13.10;;;;;;;;;;4393102;32;335086;-89
2023/03/27 03:50:43;;;;;;;21.37;14.17;;;;;;;;;;4415634;32;318534;-88
2023/03/27 03:53:10;;;;;;;24.00;14.30;;;;;;;;;;4410406;32;319348;-89
2023/03/27 03:55:37;;;;;;;28.77;14.10;;;;;;;;;;4420383;32;319237;-87
2023/03/27 03:58:04;;;;;;;24.40;13.57;;;;;;;;;;4410614;32;319752;-88
2023/03/27 04:00:33;;;;;;;27.30;16.10;;;;;;;;;;4420273;32;319077;-88
2023/03/27 04:03:03;;;;;;;22.83;14.37;;;;;;;;;;4410570;32;319481;-88
2023/03/27 04:05:30;;;;;;;21.77;14.30;;;;;;;;;;4420165;32;319316;-88
2023/03/27 04:07:58;;;;;;;93.33;63.60;;;;;;;;;;4408706;32;384951;-90
2023/03/27 04:10:25;;;;;;;80.17;62.33;;;;;;;;;;4420296;32;319272;-88
2023/03/27 04:12:52;;;;;;;66.90;44.83;;;;;;;;;;4420468;32;319010;-87
2023/03/27 04:15:19;;;;;;;31.40;16.97;;;;;;;;;;4409925;32;319482;-88
2023/03/27 04:17:47;;;;;;;29.03;15.47;;;;;;;;;;4420021;32;319192;-87
2023/03/27 04:20:16;;;;;;;29.63;17.73;;;;;;;;;;4410079;32;318765;-87
2023/03/27 04:22:45;;;;;;;34.23;21.93;;;;;;;;;;4420698;32;319566;-87
2023/03/27 04:25:13;;;;;;;29.63;19.40;;;;;;;;;;4411241;32;319456;-89
2023/03/27 04:27:40;;;;;;;22.77;14.63;;;;;;;;;;4419173;32;326671;-87
2023/03/27 04:30:12;;;;;;;39.33;21.63;;;;;;;;;;4410081;32;319377;-88
2023/03/27 04:32:39;;;;;;;60.50;22.47;;;;;;;;;;4419223;32;319303;-88
2023/03/27 04:35:07;;;;;;;52.03;24.50;;;;;;;;;;4408933;32;319432;-87
2023/03/27 04:37:35;;;;;;;33.13;18.70;;;;;;;;;;4419761;32;319208;-88
2023/03/27 04:40:05;;;;;;;32.20;14.80;;;;;;;;;;4409705;32;319167;-89
2023/03/27 04:42:32;;;;;;;27.47;14.53;;;;;;;;;;4418688;32;319373;-88
2023/03/27 04:45:00;;;;;;;19.80;12.37;;;;;;;;;;4407399;32;387671;-88
2023/03/27 04:47:27;;;;;;;31.57;14.83;;;;;;;;;;4419995;32;319330;-88
2023/03/27 04:49:53;;;;;;;29.50;15.90;;;;;;;;;;4419384;32;319406;-88
2023/03/27 04:52:20;;;;;;;24.77;14.57;;;;;;;;;;4407720;32;319443;-88
2023/03/27 04:54:51;;;;;;;38.90;13.30;;;;;;;;;;4417767;32;319233;-88
2023/03/27 04:57:27;;;;;;;35.20;16.87;;;;;;;;;;4410542;32;318717;-88
2023/03/27 04:59:54;;;;;;;38.83;19.57;;;;;;;;;;4420357;32;318722;-90
2023/03/27 05:02:21;;;;;;;56.63;25.67;;;;;;;;;;4409586;32;323805;-87
2023/03/27 05:04:48;;;;;;;59.57;28.63;;;;;;;;;;4420201;32;318611;-86
2023/03/27 05:07:15;;;;;;;54.93;27.73;;;;;;;;;;4407630;32;352399;-87
2023/03/27 05:09:42;;;;;;;57.70;28.40;;;;;;;;;;4418928;32;319278;-89
2023/03/27 05:12:10;;;;;;;53.37;27.73;;;;;;;;;;4408516;32;319358;-87
2023/03/27 05:14:37;;;;;;;48.07;26.30;;;;;;;;;;4417260;32;348172;-88
2023/03/27 05:17:04;;;;;;;45.77;25.33;;;;;;;;;;4409171;32;319548;-88
2023/03/27 05:19:31;;;;;;;41.70;24.07;;;;;;;;;;4418284;32;319511;-87
2023/03/27 05:21:57;;;;;;;46.63;24.87;;;;;;;;;;4407316;32;319428;-87
2023/03/27 05:24:25;;;;;;;63.27;28.17;;;;;;;;;;4418025;32;337922;-87
2023/03/27 05:26:52;;;;;;;63.57;31.87;;;;;;;;;;4419217;32;319461;-88
2023/03/27 05:29:20;;;;;;;54.80;27.47;;;;;;;;;;4408116;32;318690;-88
2023/03/27 05:31:47;;;;;;;55.57;28.17;;;;;;;;;;4418670;32;319561;-88
2023/03/27 05:34:14;;;;;;;54.40;25.90;;;;;;;;;;4408087;32;318609;-87
2023/03/27 05:36:41;;;;;;;47.50;23.43;;;;;;;;;;4417390;32;319418;-87
2023/03/27 05:39:08;;;;;;;40.83;21.07;;;;;;;;;;4408682;32;318637;-89
2023/03/27 05:41:35;;;;;;;45.40;21.70;;;;;;;;;;4418625;32;319491;-90
2023/03/27 05:44:02;;;;;;;43.20;23.83;;;;;;;;;;4409159;32;318814;-88
2023/03/27 05:46:30;;;;;;;43.63;22.10;;;;;;;;;;4419448;32;318863;-88
2023/03/27 05:48:58;;;;;;;47.73;26.87;;;;;;;;;;4407929;32;358435;-87
2023/03/27 05:51:25;;;;;;;17.67;11.67;;;;;;;;;;4406940;32;319294;-88
2023/03/27 05:53:52;;;;;;;12.50;6.63;;;;;;;;;;4408337;32;318613;-88
2023/03/27 05:56:19;;;;;;;10.63;4.20;;;;;;;;;;4408702;32;318477;-87
2023/03/27 05:58:46;;;;;;;13.00;5.37;;;;;;;;;;4418924;32;318342;-88
2023/03/27 06:01:12;;;;;;;10.77;6.07;;;;;;;;;;4407416;32;318457;-87
2023/03/27 06:03:41;;;;;;;4.97;3.53;;;;;;;;;;4416990;32;318093;-87
2023/03/27 06:06:09;;;;;;;4.47;3.40;;;;;;;;;;4407258;32;316834;-90
2023/03/27 06:08:36;;;;;;;10.53;4.30;;;;;;;;;;4417099;32;316722;-87
2023/03/27 06:11:08;;;;;;;6.20;4.10;;;;;;;;;;4407837;32;318379;-88
2023/03/27 06:13:35;;;;;;;5.87;4.70;;;;;;;;;;4399459;32;316502;-89
2023/03/27 06:16:03;;;;;;;6.47;4.63;;;;;;;;;;4404271;32;317919;-89
2023/03/27 06:18:30;;;;;;;5.83;4.43;;;;;;;;;;4416523;32;316601;-88
2023/03/27 06:20:59;;;;;;;6.60;4.23;;;;;;;;;;4408648;32;317454;-87
2023/03/27 06:23:25;;;;;;;6.57;3.97;;;;;;;;;;4416526;32;316444;-88
2023/03/27 06:25:53;;;;;;;5.40;4.00;;;;;;;;;;4417341;32;317330;-88
2023/03/27 06:28:20;;;;;;;8.30;4.40;;;;;;;;;;4405747;32;317244;-87
2023/03/27 06:30:47;;;;;;;7.10;3.60;;;;;;;;;;4417039;32;316871;-90
2023/03/27 06:33:15;;;;;;;5.53;2.90;;;;;;;;;;4407039;32;317300;-88
2023/03/27 06:35:44;;;;;;;3.80;3.17;;;;;;;;;;4418229;32;317662;-87
2023/03/27 06:38:14;;;;;;;4.60;3.20;;;;;;;;;;4407602;32;317656;-87
2023/03/27 06:40:41;;;;;;;5.83;3.43;;;;;;;;;;4418480;32;317517;-90
2023/03/27 06:43:09;;;;;;;4.00;2.93;;;;;;;;;;4408420;32;317259;-90
2023/03/27 06:45:38;;;;;;;4.63;3.07;;;;;;;;;;4417995;32;317197;-88
2023/03/27 06:48:06;;;;;;;7.93;3.50;;;;;;;;;;4407910;32;317324;-89
2023/03/27 06:50:34;;;;;;;13.37;3.80;;;;;;;;;;4416876;32;317169;-87
2023/03/27 06:53:01;;;;;;;12.90;4.53;;;;;;;;;;4406578;32;318598;-88
2023/03/27 06:55:31;;;;;;;8.68;3.78;;;;;;;;;;4417092;32;317446;-89
2023/03/27 06:58:00;;;;;;;6.50;4.90;;;;;;;;;;4407169;32;317247;-87
2023/03/27 07:00:29;;;;;;;7.57;2.55;;;;;;;;;;4417145;32;317371;-88
2023/03/27 07:02:58;;;;;;;6.72;2.25;;;;;;;;;;4417806;32;317585;-88
2023/03/27 07:05:26;;;;;;;6.45;3.55;;;;;;;;;;4403624;32;416381;-88
2023/03/27 07:07:53;;;;;;;9.63;3.62;;;;;;;;;;4417356;32;317170;-88
2023/03/27 07:10:21;;;;;;;5.85;3.15;;;;;;;;;;4406794;32;317276;-90
2023/03/27 07:12:50;;;;;;;4.07;2.80;;;;;;;;;;4415756;32;317405;-89
2023/03/27 07:15:18;;;;;;;3.90;2.92;;;;;;;;;;4407405;32;358214;-89
2023/03/27 07:17:52;;;;;;;26.62;3.97;;;;;;;;;;4420540;32;317139;-89
2023/03/27 07:20:19;;;;;;;6.95;2.37;;;;;;;;;;4409250;32;318344;-89
2023/03/27 07:22:46;;;;;;;7.78;3.17;;;;;;;;;;4419910;32;316701;-89
2023/03/27 07:25:16;;;;;;;5.05;2.67;;;;;;;;;;4409464;32;317698;-89
2023/03/27 07:27:43;;;;;;;4.47;2.33;;;;;;;;;;4419760;32;317166;-90
2023/03/27 07:30:12;;;;;;;4.87;2.75;;;;;;;;;;4410020;32;316562;-89
2023/03/27 07:32:40;;;;;;;6.57;3.20;;;;;;;;;;4420289;32;316606;-89
2023/03/27 07:35:08;;;;;;;5.30;3.85;;;;;;;;;;4411165;32;316682;-89
2023/03/27 07:37:36;;;;;;;6.43;2.95;;;;;;;;;;4420111;32;316628;-88
2023/03/27 07:40:05;;;;;;;3.53;2.37;;;;;;;;;;4408238;32;317535;-89
2023/03/27 07:42:32;;;;;;;6.05;2.12;;;;;;;;;;4421472;32;317268;-88
2023/03/27 07:44:59;;;;;;;4.75;2.62;;;;;;;;;;4411094;32;317538;-87
2023/03/27 07:47:28;;;;;;;4.53;2.55;;;;;;;;;;4422402;32;316768;-88
2023/03/27 07:49:55;;;;;;;4.57;2.87;;;;;;;;;;4420385;32;317254;-87
2023/03/27 07:52:22;;;;;;;3.42;2.90;;;;;;;;;;4407452;32;416334;-87
2023/03/27 07:54:50;;;;;;;4.32;2.58;;;;;;;;;;4419096;32;317023;-87
2023/03/27 07:57:17;;;;;;;5.82;2.87;;;;;;;;;;4409492;32;317025;-89
2023/03/27 07:59:45;;;;;;;9.63;2.58;;;;;;;;;;4417889;32;339208;-89
2023/03/27 08:02:12;;;;;;;4.18;2.70;;;;;;;;;;4407958;32;350467;-88
2023/03/27 08:04:40;;;;;;;6.07;3.20;;;;;;;;;;4419686;32;316625;-89
2023/03/27 08:07:08;;;;;;;8.15;3.50;;;;;;;;;;4409800;32;316843;-90
2023/03/27 08:09:35;;;;;;;6.93;3.28;;;;;;;;;;4419793;32;316422;-89
2023/03/27 08:12:02;;;;;;;5.45;3.50;;;;;;;;;;4409622;32;316437;-89
2023/03/27 08:14:29;;;;;;;3.90;2.87;;;;;;;;;;4420076;32;317260;-89
2023/03/27 08:16:56;;;;;;;6.80;2.85;;;;;;;;;;4418894;32;317429;-89
2023/03/27 08:19:22;;;;;;;3.15;2.50;;;;;;;;;;4405377;32;416636;-90
2023/03/27 08:21:51;;;;;;;5.03;3.17;;;;;;;;;;4421250;32;316512;-90
2023/03/27 08:24:17;;;;;;;7.22;2.75;;;;;;;;;;4392408;32;317619;-88
2023/03/27 08:26:45;;;;;;;8.07;4.25;;;;;;;;;;4415329;32;317091;-91
2023/03/27 08:29:12;;;;;;;5.97;3.58;;;;;;;;;;4408403;32;316650;-90
2023/03/27 08:31:39;;;;;;;18.12;10.23;;;;;;;;;;4418634;32;316644;-90
2023/03/27 08:34:05;;;;;;;6.03;3.22;;;;;;;;;;4409431;32;319394;-89
2023/03/27 08:36:33;;;;;;;9.80;3.28;;;;;;;;;;4419779;32;317181;-89
2023/03/27 08:39:01;;;;;;;3.83;2.25;;;;;;;;;;4408699;32;316986;-89
2023/03/27 08:41:37;;;;;;;7.85;2.30;;;;;;;;;;4419570;32;316443;-88
2023/03/27 08:44:08;;;;;;;11.55;2.83;;;;;;;;;;4408798;32;316449;-89
2023/03/27 08:46:40;;;;;;;9.13;2.50;;;;;;;;;;4419633;32;317360;-89
2023/03/27 08:49:11;;;;;;;10.15;3.87;;;;;;;;;;4408811;32;316599;-87
2023/03/27 08:51:44;;;;;;;6.72;2.92;;;;;;;;;;4420994;32;318193;-88
2023/03/27 08:54:18;;;;;;;7.85;3.00;;;;;;;;;;4411575;32;316545;-90
2023/03/27 08:56:45;;;;;;;50.30;27.27;;;;;;;;;;4421784;32;317200;-88
2023/03/27 08:59:14;;;;;;;12.73;7.15;;;;;;;;;;4412774;32;319397;-89
2023/03/27 09:01:50;;;;;;;3.28;2.75;;;;;;;;;;4422524;32;317639;-89
2023/03/27 09:04:30;;;;;;;6.37;3.03;;;;;;;;;;4409637;32;316595;-89
2023/03/27 09:07:02;;;;;;;5.32;3.58;;;;;;;;;;4420069;32;317337;-89
2023/03/27 09:09:41;;;;;;;3.47;2.10;;;;;;;;;;4405910;32;418939;-90
2023/03/27 09:12:18;;;;;;;13.00;3.27;;;;;;;;;;4408408;32;320131;-91
2023/03/27 09:14:48;;;;;;;7.85;3.08;;;;;;;;;;4419810;32;322139;-88
2023/03/27 09:17:17;;;;;;;4.43;2.75;;;;;;;;;;4408668;32;316841;-90
2023/03/27 09:19:53;;;;;;;7.53;4.22;;;;;;;;;;4419993;32;316430;-90
2023/03/27 09:22:23;;;;;;;6.32;4.03;;;;;;;;;;4409291;32;317229;-90
2023/03/27 09:24:55;;;;;;;6.30;3.33;;;;;;;;;;4422399;32;317293;-89
2023/03/27 09:27:26;;;;;;;3.80;2.75;;;;;;;;;;4406847;32;418009;-91
2023/03/27 09:29:58;;;;;;;10.77;2.87;;;;;;;;;;4406592;32;316579;-90
2023/03/27 09:32:25;;;;;;;10.15;4.82;;;;;;;;;;4409934;32;416556;-92
2023/03/27 09:34:54;;;;;;;7.95;3.47;;;;;;;;;;4420653;32;317309;-91
2023/03/27 09:37:21;;;;;;;8.35;3.45;;;;;;;;;;4410016;32;326460;-89
2023/03/27 09:39:53;;;;;;;10.27;3.60;;;;;;;;;;4419501;32;344953;-89
2023/03/27 09:42:25;;;;;;;9.65;5.00;;;;;;;;;;4409069;32;317699;-89
2023/03/27 09:44:55;;;;;;;8.85;4.93;;;;;;;;;;4418227;32;316661;-89
2023/03/27 09:47:30;;;;;;;8.52;3.25;;;;;;;;;;4408424;32;416298;-91
2023/03/27 09:50:01;;;;;;;8.10;3.85;;;;;;;;;;4408860;32;316651;-89
2023/03/27 09:52:37;;;;;;;5.67;4.40;;;;;;;;;;4418202;32;317242;-89
2023/03/27 09:55:23;;;;;;;8.35;5.80;;;;;;;;;;4407754;32;317346;-90
2023/03/27 09:57:57;;;;;;;13.82;7.80;;;;;;;;;;4419151;32;316364;-89
2023/03/27 10:00:29;;;;;;;9.43;5.40;;;;;;;;;;4404107;32;418265;-91
2023/03/27 10:03:02;;;;;;;5.25;3.33;;;;;;;;;;4418313;32;317185;-91
2023/03/27 10:05:30;;;;;;;7.50;3.87;;;;;;;;;;4406214;32;416754;-89
2023/03/27 10:07:57;;;;;;;8.07;5.20;;;;;;;;;;4415341;32;317037;-89
2023/03/27 10:10:31;;;;;;;21.77;11.75;;;;;;;;;;4418603;32;317302;-89
2023/03/27 10:12:59;;;;;;;62.72;34.00;;;;;;;;;;4407169;32;371639;-90
2023/03/27 10:15:33;;;;;;;26.95;14.63;;;;;;;;;;4417970;32;318862;-90
2023/03/27 10:18:03;;;;;;;32.05;18.90;;;;;;;;;;4407026;32;318660;-89
2023/03/27 10:20:31;;;;;;;32.28;20.15;;;;;;;;;;4417396;32;318525;-90
2023/03/27 10:23:02;;;;;;;36.60;19.83;;;;;;;;;;4407568;32;318759;-86
2023/03/27 10:25:33;;;;;;;12.48;8.88;;;;;;;;;;4418080;32;318563;-90
2023/03/27 10:28:10;;;;;;;8.40;4.32;;;;;;;;;;4406518;32;379307;-88
2023/03/27 10:30:39;;;;;;;8.75;5.22;;;;;;;;;;4416550;32;316599;-90
2023/03/27 10:33:06;;;;;;;8.68;4.97;;;;;;;;;;4406881;32;316415;-90
2023/03/27 10:35:36;;;;;;;17.35;7.97;;;;;;;;;;4417820;32;317234;-90
2023/03/27 10:38:06;;;;;;;13.13;5.53;;;;;;;;;;4407123;32;318342;-91
2023/03/27 10:40:37;;;;;;;7.78;4.62;;;;;;;;;;4416852;32;318338;-90
2023/03/27 10:43:09;;;;;;;10.68;3.70;;;;;;;;;;4407914;32;316835;-90
2023/03/27 10:45:45;;;;;;;7.00;3.58;;;;;;;;;;4418145;32;317516;-90
2023/03/27 10:48:16;;;;;;;7.07;3.87;;;;;;;;;;4406498;32;330807;-89
2023/03/27 10:50:52;;;;;;;3.78;2.22;;;;;;;;;;4417643;32;317199;-88
2023/03/27 10:53:23;;;;;;;4.50;3.25;;;;;;;;;;4409371;32;316089;-88
2023/03/27 10:56:04;;;;;;;7.03;3.45;;;;;;;;;;4420388;32;316384;-89
2023/03/27 10:58:34;;;;;;;4.28;2.83;;;;;;;;;;4407368;32;419011;-90
2023/03/27 11:01:07;;;;;;;7.90;6.12;;;;;;;;;;4404186;32;353980;-91
2023/03/27 11:03:38;;;;;;;7.22;3.78;;;;;;;;;;4418026;32;343446;-90
2023/03/27 11:06:11;;;;;;;3.75;2.85;;;;;;;;;;4407259;32;316748;-89
2023/03/27 11:08:55;;;;;;;4.23;2.87;;;;;;;;;;4418536;32;316349;-89
2023/03/27 11:11:27;;;;;;;131.73;58.58;;;;;;;;;;4408274;32;316478;-87
2023/03/27 11:13:58;;;;;;;51.30;21.77;;;;;;;;;;4417225;32;319611;-88
2023/03/27 11:16:30;;;;;;;9.27;4.72;;;;;;;;;;4403696;32;418804;-88
2023/03/27 11:19:07;;;;;;;6.03;3.20;;;;;;;;;;4407538;32;317425;-86
2023/03/27 11:21:40;;;;;;;7.78;3.03;;;;;;;;;;4418438;32;317157;-88
2023/03/27 11:24:16;;;;;;;8.70;2.58;;;;;;;;;;4408514;32;316388;-89
2023/03/27 11:26:51;;;;;;;12.55;4.68;;;;;;;;;;4419076;32;316663;-89
2023/03/27 11:29:22;;;;;;;12.70;2.97;;;;;;;;;;4406908;32;341355;-89
2023/03/27 11:31:51;;;;;;;9.48;3.72;;;;;;;;;;4417463;32;317697;-89
2023/03/27 11:34:24;;;;;;;8.30;3.45;;;;;;;;;;4409883;32;317107;-92
2023/03/27 11:36:54;;;;;;;7.62;3.92;;;;;;;;;;4420124;32;317114;-92
2023/03/27 11:39:27;;;;;;;9.48;3.85;;;;;;;;;;4409725;32;316478;-91
2023/03/27 11:41:59;;;;;;;4.50;2.10;;;;;;;;;;4420326;32;317253;-91
2023/03/27 11:44:29;;;;;;;6.83;2.80;;;;;;;;;;4407992;32;410640;-90
2023/03/27 11:47:13;;;;;;;16.53;4.13;;;;;;;;;;4421247;32;316557;-91
2023/03/27 11:50:00;;;;;;;10.87;4.53;;;;;;;;;;4406308;32;417360;-90
2023/03/27 11:52:40;;;;;;;10.13;4.63;;;;;;;;;;4407427;32;418287;-92
2023/03/27 11:55:16;;;;;;;9.53;4.37;;;;;;;;;;4409903;32;318343;-89
2023/03/27 11:57:56;;;;;;;6.20;3.07;;;;;;;;;;4419911;32;316800;-91
2023/03/27 12:00:31;;;;;;;5.73;3.30;;;;;;;;;;4406742;32;417031;-91
2023/03/27 12:03:27;;;;;;;6.60;3.43;;;;;;;;;;4413514;32;317126;-89
2023/03/27 12:06:04;;;;;;;7.33;3.10;;;;;;;;;;4423503;32;317348;-93
2023/03/27 12:08:44;;;;;;;6.70;3.13;;;;;;;;;;4410442;32;416845;-90
2023/03/27 12:11:11;;;;;;;5.20;2.37;;;;;;;;;;4413906;32;317288;-90
2023/03/27 12:13:57;;;;;;;3.40;2.40;;;;;;;;;;4425383;32;316465;-90
2023/03/27 12:16:36;;;;;;;3.83;3.17;;;;;;;;;;4409492;32;417732;-92
2023/03/27 12:19:19;;;;;;;4.83;3.10;;;;;;;;;;4416692;32;316612;-88
2023/03/27 12:21:59;;;;;;;6.23;2.93;;;;;;;;;;4424919;32;316695;-89
2023/03/27 12:24:34;;;;;;;4.57;3.40;;;;;;;;;;4412801;32;414934;-93
2023/03/27 12:27:36;;;;;;;5.53;3.60;;;;;;;;;;4412462;32;317383;-89
2023/03/27 12:30:26;;;;;;;5.90;3.23;;;;;;;;;;4408361;32;316629;-90
2023/03/27 12:33:29;;;;;;;10.63;4.77;;;;;;;;;;4421795;32;317037;-91
2023/03/27 13:38:59;;;;;;;6.63;4.77;;;;;;;;;;4443363;32;20677;-86
2023/03/27 13:41:50;;;;;;;8.60;5.93;;;;;;;;;;4406537;32;315958;-84
2023/03/27 13:44:24;;;;;;;7.43;5.43;;;;;;;;;;4415684;32;317258;-82
2023/03/27 13:46:57;;;;;;;7.20;4.23;;;;;;;;;;4426459;32;316740;-83
2023/03/27 13:49:44;;;;;;;9.57;5.47;;;;;;;;;;4416445;32;316593;-86
2023/03/27 13:52:38;;;;;;;7.43;4.20;;;;;;;;;;4415246;32;316800;-81
2023/03/27 13:55:43;;;;;;;7.30;4.03;;;;;;;;;;4415133;32;317542;-80
2023/03/27 13:58:36;;;;;;;4.43;3.10;;;;;;;;;;4352893;32;317335;-81
2023/03/27 14:01:33;;;;;;;4.17;3.10;;;;;;;;;;4366460;32;317728;-82
2023/03/27 14:04:28;;;;;;;9.03;4.60;;;;;;;;;;4420407;32;418345;-80
2023/03/27 14:07:35;;;;;;;5.67;4.10;;;;;;;;;;4414466;32;419255;-78
2023/03/27 14:10:18;;;;;;;7.30;4.23;;;;;;;;;;4437365;32;416669;-78
2023/03/27 14:12:58;;;;;;;6.87;4.70;;;;;;;;;;4425675;32;417111;-78
2023/03/27 14:15:59;;;;;;;5.00;3.20;;;;;;;;;;4434270;32;316405;-86
2023/03/27 14:18:54;;;;;;;6.40;4.63;;;;;;;;;;4405858;32;317385;-79
2023/03/27 14:21:23;;;;;;;10.53;5.23;;;;;;;;;;4418297;32;317384;-81
2023/03/27 14:23:57;;;;;;;5.93;4.23;;;;;;;;;;4435255;32;317817;-80
2023/03/27 14:26:28;;;;;;;5.17;3.77;;;;;;;;;;4420297;32;317142;-81
2023/03/27 14:29:00;;;;;;;6.87;3.47;;;;;;;;;;4431773;32;317258;-79
2023/03/27 14:31:34;;;;;;;5.00;3.20;;;;;;;;;;4421664;32;316662;-81
2023/03/27 14:34:04;;;;;;;6.00;3.77;;;;;;;;;;4430647;32;316649;-88
2023/03/27 14:36:40;;;;;;;3.30;2.53;;;;;;;;;;4412409;32;417394;-84
2023/03/27 14:39:14;;;;;;;2.43;1.90;;;;;;;;;;4406196;32;317251;-85
2023/03/27 14:41:46;;;;;;;4.50;2.87;;;;;;;;;;4413960;32;317264;-82
2023/03/27 14:44:14;;;;;;;3.72;2.53;;;;;;;;;;4405476;32;317232;-84
2023/03/27 14:46:46;;;;;;;4.67;1.57;;;;;;;;;;4413940;32;316486;-81
2023/03/27 14:49:18;;;;;;;2.93;1.97;;;;;;;;;;4404451;32;317698;-86
2023/03/27 14:51:47;;;;;;;4.83;3.00;;;;;;;;;;4415416;32;317745;-86
2023/03/27 14:54:25;;;;;;;4.87;1.80;;;;;;;;;;4404815;32;317265;-82
2023/03/27 14:57:01;;;;;;;4.00;2.50;;;;;;;;;;4413917;32;316608;-84
2023/03/27 14:59:35;;;;;;;2.73;2.10;;;;;;;;;;4405520;32;317432;-83
2023/03/27 15:02:04;;;;;;;2.13;1.67;;;;;;;;;;4415733;32;316770;-84
2023/03/27 15:04:39;;;;;;;1.43;1.33;;;;;;;;;;4395342;32;388083;-83
2023/03/27 15:07:13;;;;;;;4.27;2.47;;;;;;;;;;4406866;32;317109;-85
2023/03/27 15:09:43;;;;;;;6.47;2.80;;;;;;;;;;4423269;32;317094;-83
2023/03/27 15:12:11;;;;;;;2.83;1.90;;;;;;;;;;4419286;32;316900;-86
2023/03/27 15:14:40;;;;;;;10.60;2.87;;;;;;;;;;4429867;32;316986;-84
2023/03/27 15:17:13;;;;;;;5.07;2.80;;;;;;;;;;4406033;32;318924;-88
2023/03/27 15:19:44;;;;;;;7.40;4.77;;;;;;;;;;4417589;32;317237;-90
2023/03/27 15:22:15;;;;;;;48.80;31.47;;;;;;;;;;4405913;32;316643;-88
2023/03/27 15:24:47;;;;;;;16.43;11.33;;;;;;;;;;4414069;32;319408;-88
2023/03/27 15:27:20;;;;;;;18.90;4.30;;;;;;;;;;4404425;32;354687;-86
2023/03/27 15:29:52;;;;;;;23.07;13.83;;;;;;;;;;4415581;32;318441;-85
2023/03/27 15:32:20;;;;;;;6.93;4.63;;;;;;;;;;4402862;32;319679;-83
2023/03/27 15:34:50;;;;;;;10.30;5.33;;;;;;;;;;4412895;32;317374;-83
2023/03/27 15:37:22;;;;;;;15.37;8.83;;;;;;;;;;4402815;32;318399;-85
2023/03/27 15:40:08;;;;;;;10.77;6.33;;;;;;;;;;4414522;32;318235;-85
2023/03/27 15:42:46;;;;;;;12.50;8.70;;;;;;;;;;4400823;32;417567;-84
2023/03/27 15:45:16;;;;;;;9.03;7.87;;;;;;;;;;4404186;32;318327;-83
2023/03/27 15:47:44;;;;;;;15.57;8.07;;;;;;;;;;4414189;32;316768;-84
2023/03/27 15:50:18;;;;;;;22.80;14.07;;;;;;;;;;4407387;32;318283;-82